createdAt,value
2023-03-24T00:01:01.639Z,12.40
2023-03-24T00:03:30.133Z,8.82
2023-03-24T00:06:02.064Z,10.73
2023-03-24T00:08:36.429Z,13.52
2023-03-24T00:11:09.794Z,15.88
2023-03-24T00:13:38.445Z,9.30
2023-03-24T00:16:06.967Z,12.07
2023-03-24T00:18:35.255Z,13.63
2023-03-24T00:21:03.437Z,9.88
2023-03-24T00:23:35.200Z,15.13
2023-03-24T00:26:16.079Z,15.13
2023-03-24T00:28:48.755Z,19.58
2023-03-24T00:31:17.601Z,19.17
2023-03-24T00:33:51.095Z,23.80
2023-03-24T00:36:21.238Z,13.70
2023-03-24T00:38:50.298Z,16.40
2023-03-24T00:41:20.511Z,21.60
2023-03-24T00:43:50.919Z,21.00
2023-03-24T00:46:31.225Z,20.70
2023-03-24T00:49:06.200Z,30.02
2023-03-24T00:51:39.816Z,24.15
2023-03-24T00:54:09.414Z,18.73
2023-03-24T00:56:40.640Z,29.80
2023-03-24T00:59:10.698Z,17.67
2023-03-24T01:01:39.749Z,30.65
2023-03-24T01:04:07.549Z,21.98
2023-03-24T01:06:39.700Z,23.48
2023-03-24T01:09:07.762Z,23.70
2023-03-24T01:11:38.770Z,24.95
2023-03-24T01:14:06.443Z,20.73
2023-03-24T01:16:33.886Z,16.60
2023-03-24T01:19:01.334Z,23.15
2023-03-24T01:21:28.893Z,20.48
2023-03-24T01:23:57.112Z,20.13
2023-03-24T01:26:24.429Z,24.02
2023-03-24T01:28:51.786Z,26.88
2023-03-24T01:31:19.342Z,14.95
2023-03-24T01:33:47.336Z,29.88
2023-03-24T01:36:18.553Z,20.50
2023-03-24T01:38:46.138Z,23.63
2023-03-24T01:41:14.563Z,29.92
2023-03-24T01:43:43.295Z,26.55
2023-03-24T01:46:17.513Z,28.00
2023-03-24T01:49:00.422Z,30.50
2023-03-24T01:51:45.455Z,30.75
2023-03-24T01:54:28.416Z,25.38
2023-03-24T01:57:13.672Z,24.23
2023-03-24T01:59:46.089Z,35.20
2023-03-24T02:02:14.660Z,25.17
2023-03-24T02:04:46.470Z,27.08
2023-03-24T02:07:43.634Z,32.20
2023-03-24T02:10:14.297Z,21.30
2023-03-24T02:12:43.322Z,25.65
2023-03-24T02:15:12.515Z,21.63
2023-03-24T02:17:41.175Z,19.88
2023-03-24T02:20:32.384Z,37.08
2023-03-24T02:23:35.018Z,25.05
2023-03-24T02:26:14.323Z,24.05
2023-03-24T02:28:52.899Z,28.42
2023-03-24T02:31:33.533Z,26.63
2023-03-24T02:34:28.354Z,30.88
2023-03-24T02:37:08.674Z,23.50
2023-03-24T02:40:02.508Z,32.35
2023-03-24T02:42:50.131Z,30.73
2023-03-24T02:45:51.708Z,23.73
2023-03-24T02:48:40.404Z,24.10
2023-03-24T02:51:23.973Z,29.73
2023-03-24T02:54:09.530Z,28.30
2023-03-24T02:56:47.432Z,19.17
2023-03-24T02:59:59.912Z,31.02
2023-03-24T03:02:32.505Z,27.65
2023-03-24T03:05:17.651Z,20.10
2023-03-24T03:07:46.884Z,26.65
2023-03-24T03:10:36.315Z,15.85
2023-03-24T03:13:11.761Z,19.40
2023-03-24T03:15:44.593Z,29.98
2023-03-24T03:18:25.430Z,24.88
2023-03-24T03:20:58.549Z,19.33
2023-03-24T03:23:33.748Z,20.13
2023-03-24T03:26:04.753Z,19.75
2023-03-24T03:28:36.829Z,26.63
2023-03-24T03:31:14.888Z,25.13
2023-03-24T03:33:59.565Z,17.25
2023-03-24T03:36:29.956Z,30.00
2023-03-24T03:39:09.663Z,18.60
2023-03-24T03:41:38.695Z,27.55
2023-03-24T03:44:06.611Z,25.27
2023-03-24T03:46:36.350Z,28.63
2023-03-24T03:49:06.464Z,29.33
2023-03-24T03:51:34.674Z,37.28
2023-03-24T03:54:06.953Z,27.92
2023-03-24T03:56:36.664Z,23.30
2023-03-24T03:59:06.366Z,20.17
2023-03-24T04:01:37.371Z,32.63
2023-03-24T04:04:53.262Z,20.88
2023-03-24T04:07:58.141Z,41.17
2023-03-24T04:10:41.534Z,27.48
2023-03-24T04:13:38.176Z,22.55
2023-03-24T04:16:11.527Z,39.23
2023-03-24T04:19:00.670Z,21.98
2023-03-24T04:21:54.076Z,30.00
2023-03-24T04:24:44.588Z,29.95
2023-03-24T04:27:47.682Z,27.52
2023-03-24T04:30:30.317Z,33.67
2023-03-24T04:33:01.593Z,22.25
2023-03-24T04:35:42.512Z,27.67
2023-03-24T04:38:17.463Z,37.63
2023-03-24T04:40:49.589Z,38.92
2023-03-24T04:43:21.377Z,37.13
2023-03-24T04:45:52.361Z,28.45
2023-03-24T04:48:23.220Z,27.67
2023-03-24T04:50:59.390Z,33.25
2023-03-24T04:53:27.710Z,41.35
2023-03-24T04:56:31.048Z,28.08
2023-03-24T04:58:58.899Z,34.95
2023-03-24T05:01:30.501Z,29.50
2023-03-24T05:03:59.342Z,41.05
2023-03-24T05:06:27.832Z,25.65
2023-03-24T05:08:57.718Z,27.20
2023-03-24T05:11:29.169Z,27.48
2023-03-24T05:13:56.604Z,44.97
2023-03-24T05:16:23.981Z,34.15
2023-03-24T05:18:53.778Z,46.38
2023-03-24T05:21:21.412Z,35.00
2023-03-24T05:23:48.759Z,33.80
2023-03-24T05:26:16.274Z,32.67
2023-03-24T05:28:43.563Z,25.48
2023-03-24T05:31:11.460Z,30.80
2023-03-24T05:33:38.915Z,37.85
2023-03-24T05:36:06.696Z,34.13
2023-03-24T05:38:34.231Z,31.50
2023-03-24T05:41:01.931Z,35.85
2023-03-24T05:43:29.438Z,40.65
2023-03-24T05:45:56.933Z,30.13
2023-03-24T05:48:24.289Z,32.15
2023-03-24T05:50:52.715Z,28.92
2023-03-24T05:53:20.970Z,49.80
2023-03-24T05:55:48.812Z,36.78
2023-03-24T05:58:16.697Z,28.42
2023-03-24T06:00:44.640Z,44.85
2023-03-24T06:03:14.130Z,33.85
2023-03-24T06:05:43.194Z,48.95
2023-03-24T06:08:11.588Z,28.10
2023-03-24T06:10:38.963Z,24.60
2023-03-24T06:13:10.821Z,37.20
2023-03-24T06:15:39.836Z,34.65
2023-03-24T06:18:08.060Z,45.63
2023-03-24T06:20:36.579Z,37.13
2023-03-24T06:23:04.251Z,29.27
2023-03-24T06:25:33.612Z,27.40
2023-03-24T06:28:04.495Z,26.48
2023-03-24T06:30:31.894Z,38.58
2023-03-24T06:32:59.405Z,41.90
2023-03-24T06:35:26.792Z,32.53
2023-03-24T06:37:54.345Z,38.25
2023-03-24T06:40:22.546Z,43.28
2023-03-24T06:42:50.175Z,31.38
2023-03-24T06:45:17.574Z,32.17
2023-03-24T06:47:44.959Z,23.48
2023-03-24T06:50:12.407Z,36.38
2023-03-24T06:52:39.858Z,34.80
2023-03-24T06:55:08.601Z,33.20
2023-03-24T06:57:38.488Z,30.60
2023-03-24T07:00:08.783Z,35.53
2023-03-24T07:02:39.902Z,39.03
2023-03-24T07:05:09.926Z,24.85
2023-03-24T07:08:23.614Z,30.92
2023-03-24T07:10:25.797Z,32.97
2023-03-24T07:12:53.530Z,36.72
2023-03-24T07:15:21.088Z,45.50
2023-03-24T07:17:48.377Z,25.15
2023-03-24T07:20:16.252Z,37.30
2023-03-24T07:22:43.636Z,32.20
2023-03-24T07:25:10.961Z,19.15
2023-03-24T07:27:39.511Z,30.95
2023-03-24T07:30:09.388Z,28.00
2023-03-24T07:32:39.397Z,28.70
2023-03-24T07:35:11.917Z,48.95
2023-03-24T07:37:40.493Z,29.20
2023-03-24T07:40:12.347Z,27.85
2023-03-24T07:42:42.240Z,38.13
2023-03-24T07:45:11.810Z,28.85
2023-03-24T07:47:39.846Z,40.38
2023-03-24T07:50:10.296Z,38.17
2023-03-24T07:52:42.437Z,26.80
2023-03-24T07:55:12.213Z,39.17
2023-03-24T07:57:46.020Z,50.20
2023-03-24T08:00:20.112Z,33.55
2023-03-24T08:02:49.928Z,25.00
2023-03-24T08:05:20.988Z,24.33
2023-03-24T08:07:53.612Z,27.58
2023-03-24T08:10:23.675Z,23.40
2023-03-24T08:12:51.347Z,22.90
2023-03-24T08:15:19.262Z,35.17
2023-03-24T08:17:48.580Z,29.90
2023-03-24T08:20:16.509Z,30.95
2023-03-24T08:22:50.033Z,25.48
2023-03-24T08:25:19.447Z,27.17
2023-03-24T08:27:47.649Z,20.50
2023-03-24T08:30:17.990Z,29.83
2023-03-24T08:32:51.810Z,25.15
2023-03-24T08:35:24.840Z,30.60
2023-03-24T08:37:52.786Z,32.75
2023-03-24T08:40:24.757Z,27.08
2023-03-24T08:43:03.993Z,31.08
2023-03-24T08:45:32.419Z,29.52
2023-03-24T08:48:02.007Z,25.52
2023-03-24T08:50:35.044Z,27.50
2023-03-24T08:53:04.545Z,24.50
2023-03-24T08:55:32.011Z,24.52
2023-03-24T08:57:59.419Z,26.35
2023-03-24T09:00:27.018Z,20.70
2023-03-24T09:02:56.734Z,28.45
2023-03-24T09:05:40.981Z,24.05
2023-03-24T09:10:43.105Z,23.75
2023-03-24T09:13:10.484Z,32.17
2023-03-24T09:15:38.667Z,31.00
2023-03-24T09:18:06.541Z,18.02
2023-03-24T09:20:34.309Z,22.67
2023-03-24T09:23:01.886Z,20.95
2023-03-24T09:25:29.261Z,35.67
2023-03-24T09:27:57.095Z,17.35
2023-03-24T09:30:24.469Z,29.50
2023-03-24T09:32:51.891Z,20.65
2023-03-24T09:35:19.385Z,18.75
2023-03-24T09:37:46.778Z,21.08
2023-03-24T09:40:38.942Z,23.08
2023-03-24T09:43:23.798Z,25.38
2023-03-24T09:45:55.895Z,28.42
2023-03-24T09:48:55.566Z,28.73
2023-03-24T09:51:27.541Z,20.13
2023-03-24T09:54:10.427Z,27.77
2023-03-24T09:56:40.453Z,21.02
2023-03-24T09:59:20.370Z,19.88
2023-03-24T10:01:49.633Z,28.35
2023-03-24T10:04:20.376Z,27.05
2023-03-24T10:06:53.349Z,30.90
2023-03-24T10:09:33.275Z,21.92
2023-03-24T10:12:19.189Z,27.67
2023-03-24T10:14:54.543Z,21.33
2023-03-24T10:17:29.672Z,13.43
2023-03-24T10:20:15.977Z,24.52
2023-03-24T10:22:59.288Z,13.77
2023-03-24T10:25:41.268Z,26.20
2023-03-24T10:28:22.359Z,21.50
2023-03-24T10:30:53.607Z,20.08
2023-03-24T10:33:21.047Z,18.08
2023-03-24T10:35:54.159Z,16.23
2023-03-24T10:38:23.500Z,20.40
2023-03-24T10:40:52.404Z,28.50
2023-03-24T10:43:22.235Z,25.83
2023-03-24T10:45:53.228Z,14.88
2023-03-24T10:48:48.900Z,16.83
2023-03-24T10:51:22.107Z,12.43
2023-03-24T10:53:50.172Z,11.82
2023-03-24T10:56:36.954Z,11.90
2023-03-24T10:59:27.562Z,12.07
2023-03-24T11:02:09.405Z,13.85
2023-03-24T11:04:51.300Z,15.10
2023-03-24T11:07:23.968Z,15.02
2023-03-24T11:10:10.130Z,20.42
2023-03-24T11:13:05.033Z,15.27
2023-03-24T11:15:37.464Z,24.17
2023-03-24T11:18:16.321Z,16.27
2023-03-24T11:20:53.616Z,19.33
2023-03-24T11:23:42.904Z,14.55
2023-03-24T11:26:16.570Z,20.88
2023-03-24T11:28:48.438Z,19.95
2023-03-24T11:31:24.829Z,12.48
2023-03-24T11:36:35.937Z,16.80
2023-03-24T11:39:25.934Z,12.50
2023-03-24T11:42:01.198Z,15.85
2023-03-24T11:44:51.442Z,12.05
2023-03-24T11:47:32.684Z,13.88
2023-03-24T11:50:14.896Z,9.57
2023-03-24T11:53:04.844Z,13.80
2023-03-24T11:55:41.777Z,14.65
2023-03-24T11:58:50.448Z,12.57
2023-03-24T12:01:20.724Z,13.90
2023-03-24T12:04:25.142Z,21.05
2023-03-24T12:07:08.724Z,22.00
2023-03-24T12:09:51.296Z,8.52
2023-03-24T12:12:46.152Z,13.15
2023-03-24T12:15:26.755Z,17.38
2023-03-24T12:18:31.078Z,17.77
2023-03-24T12:21:37.680Z,6.88
2023-03-24T12:24:17.427Z,9.15
2023-03-24T12:26:44.798Z,6.88
2023-03-24T12:29:27.848Z,19.95
2023-03-24T12:32:15.700Z,16.42
2023-03-24T12:34:46.097Z,19.33
2023-03-24T12:37:31.585Z,14.75
2023-03-24T12:40:11.216Z,16.58
2023-03-24T12:42:48.150Z,13.32
2023-03-24T12:45:44.373Z,26.50
2023-03-24T12:48:31.457Z,17.88
2023-03-24T12:54:05.891Z,25.20
2023-03-24T12:56:38.354Z,25.77
2023-03-24T12:59:15.504Z,17.35
2023-03-24T13:01:46.946Z,28.25
2023-03-24T13:04:26.936Z,19.20
2023-03-24T13:06:57.110Z,15.25
2023-03-24T13:09:49.227Z,17.67
2023-03-24T13:12:20.837Z,18.00
2023-03-24T13:15:07.262Z,10.38
2023-03-24T13:17:45.121Z,27.08
2023-03-24T13:20:17.248Z,20.83
2023-03-24T13:22:45.428Z,20.77
2023-03-24T13:25:52.602Z,12.90
2023-03-24T13:28:29.816Z,17.45
2023-03-24T13:30:59.765Z,21.65
2023-03-24T13:33:32.252Z,11.15
2023-03-24T13:36:14.988Z,7.88
2023-03-24T13:38:48.057Z,9.43
2023-03-24T13:41:30.805Z,7.88
2023-03-24T13:44:03.210Z,11.68
2023-03-24T13:46:30.892Z,17.63
2023-03-24T13:49:01.290Z,11.43
2023-03-24T13:51:43.930Z,10.60
2023-03-24T13:54:23.702Z,7.78
2023-03-24T13:57:07.305Z,11.63
2023-03-24T13:59:46.866Z,13.32
2023-03-24T14:02:30.659Z,10.27
2023-03-24T14:05:30.497Z,23.13
2023-03-24T14:08:01.086Z,12.23
2023-03-24T14:10:31.122Z,12.60
2023-03-24T14:12:58.428Z,11.15
2023-03-24T14:15:34.244Z,15.35
2023-03-24T14:18:23.175Z,14.90
2023-03-24T14:20:56.583Z,17.67
2023-03-24T14:23:41.195Z,18.60
2023-03-24T14:26:16.472Z,15.48
2023-03-24T14:29:04.520Z,20.70
2023-03-24T14:31:34.688Z,17.30
2023-03-24T14:34:20.451Z,13.63
2023-03-24T14:37:03.977Z,17.30
2023-03-24T14:39:43.317Z,17.98
2023-03-24T14:42:36.696Z,15.57
2023-03-24T14:45:07.614Z,15.10
2023-03-24T14:47:41.933Z,11.18
2023-03-24T14:50:23.067Z,15.52
2023-03-24T14:52:53.876Z,16.95
2023-03-24T14:55:23.954Z,10.15
2023-03-24T14:58:03.250Z,12.02
2023-03-24T15:00:51.707Z,14.50
2023-03-24T15:03:51.264Z,11.43
2023-03-24T15:06:24.217Z,15.53
2023-03-24T15:08:53.968Z,15.27
2023-03-24T15:11:34.216Z,18.63
2023-03-24T15:14:04.906Z,20.60
2023-03-24T15:16:35.598Z,16.77
2023-03-24T15:19:11.497Z,18.55
2023-03-24T15:21:47.319Z,14.25
2023-03-24T15:24:23.561Z,20.05
2023-03-24T15:27:07.306Z,18.98
2023-03-24T15:29:36.495Z,18.42
2023-03-24T15:32:04.990Z,13.07
2023-03-24T15:34:40.164Z,19.50
2023-03-24T15:37:23.472Z,23.00
2023-03-24T15:39:59.206Z,14.50
2023-03-24T15:42:39.974Z,16.80
2023-03-24T15:45:29.108Z,9.85
2023-03-24T15:47:57.646Z,12.38
2023-03-24T15:50:37.790Z,14.13
2023-03-24T15:53:07.317Z,13.85
2023-03-24T15:55:37.247Z,20.48
2023-03-24T15:58:23.062Z,21.15
2023-03-24T16:00:53.653Z,17.13
2023-03-24T16:03:26.786Z,26.20
2023-03-24T16:05:56.520Z,19.20
2023-03-24T16:08:39.304Z,12.88
2023-03-24T16:11:15.753Z,11.10
2023-03-24T16:13:45.794Z,19.80
2023-03-24T16:16:16.369Z,15.65
2023-03-24T16:18:49.515Z,18.05
2023-03-24T16:21:19.152Z,20.42
2023-03-24T16:23:47.479Z,18.02
2023-03-24T16:26:15.728Z,21.08
2023-03-24T16:28:43.455Z,25.42
2023-03-24T16:31:31.349Z,15.75
2023-03-24T16:33:59.429Z,21.33
2023-03-24T16:36:28.944Z,20.38
2023-03-24T16:38:58.479Z,16.42
2023-03-24T16:41:26.454Z,22.63
2023-03-24T16:43:54.535Z,23.98
2023-03-24T16:46:31.555Z,23.63
2023-03-24T16:49:00.233Z,20.80
2023-03-24T16:51:27.738Z,13.18
2023-03-24T16:53:56.498Z,17.23
2023-03-24T16:56:24.698Z,18.23
2023-03-24T16:58:56.509Z,17.23
2023-03-24T17:01:37.371Z,28.98
2023-03-24T17:04:16.844Z,20.25
2023-03-24T17:06:49.073Z,23.00
2023-03-24T17:09:16.853Z,18.67
2023-03-24T17:11:50.716Z,33.10
2023-03-24T17:27:47.718Z,2.00
2023-03-24T18:06:47.835Z,2.60
2023-03-24T18:09:24.377Z,7.40
2023-03-24T18:11:54.346Z,7.05
2023-03-24T18:34:26.719Z,5.07
2023-03-24T18:36:55.069Z,5.20
2023-03-24T18:39:22.830Z,6.13
2023-03-24T18:41:51.884Z,6.55
2023-03-24T18:44:21.723Z,6.63
2023-03-24T18:46:50.496Z,4.75
2023-03-24T18:49:17.848Z,5.32
2023-03-24T18:51:47.064Z,4.15
2023-03-24T18:54:14.480Z,5.30
2023-03-24T18:56:42.344Z,5.90
2023-03-24T18:59:11.651Z,6.32
2023-03-24T19:01:39.068Z,18.30
2023-03-24T19:04:06.607Z,5.78
2023-03-24T19:06:35.020Z,6.03
2023-03-24T19:09:02.687Z,5.05
2023-03-24T19:11:30.978Z,2.60
2023-03-24T19:13:59.441Z,4.35
2023-03-24T19:16:26.829Z,9.85
2023-03-24T19:18:54.353Z,12.20
2023-03-24T19:21:23.170Z,8.52
2023-03-24T19:23:52.562Z,14.20
2023-03-24T19:26:21.365Z,16.42
2023-03-24T19:28:50.070Z,8.90
2023-03-24T19:31:20.249Z,13.93
2023-03-24T19:33:47.903Z,16.10
2023-03-24T19:36:15.665Z,19.15
2023-03-24T19:38:43.191Z,20.52
2023-03-24T19:41:13.466Z,13.52
2023-03-24T19:43:40.830Z,16.38
2023-03-24T19:46:08.558Z,17.58
2023-03-24T19:48:36.577Z,17.23
2023-03-24T19:51:04.816Z,21.10
2023-03-24T19:53:32.215Z,31.67
2023-03-24T19:56:01.204Z,21.13
2023-03-24T19:58:28.853Z,28.40
2023-03-24T20:00:56.715Z,24.92
2023-03-24T20:03:24.343Z,30.15
2023-03-24T20:05:52.154Z,30.70
2023-03-24T20:08:22.156Z,22.00
2023-03-24T20:10:49.495Z,20.98
2023-03-24T20:13:16.789Z,19.40
2023-03-24T20:15:46.327Z,53.83
2023-03-24T20:18:13.939Z,22.98
2023-03-24T20:20:41.338Z,35.72
2023-03-24T20:23:09.829Z,25.90
2023-03-24T20:25:40.953Z,27.48
2023-03-24T20:28:08.320Z,26.75
2023-03-24T20:30:35.785Z,25.80
2023-03-24T20:33:03.357Z,30.60
2023-03-24T20:35:32.678Z,19.65
2023-03-24T20:38:01.615Z,28.90
2023-03-24T20:40:28.898Z,19.15
2023-03-24T20:42:57.017Z,29.75
2023-03-24T20:45:24.613Z,26.20
2023-03-24T20:47:52.228Z,26.45
2023-03-24T20:50:20.395Z,24.67
2023-03-24T20:52:48.011Z,30.33
2023-03-24T20:55:17.603Z,24.35
2023-03-24T20:57:44.981Z,19.08
2023-03-24T21:00:15.692Z,27.48
2023-03-24T21:02:43.656Z,23.23
2023-03-24T21:05:11.868Z,26.48
2023-03-24T21:07:43.716Z,29.65
2023-03-24T21:10:11.722Z,30.65
2023-03-24T21:12:52.833Z,33.58
2023-03-24T21:15:26.160Z,33.60
2023-03-24T21:17:54.295Z,36.63
2023-03-24T21:20:22.504Z,21.30
2023-03-24T21:22:55.944Z,27.67
2023-03-24T21:25:30.519Z,21.20
2023-03-24T21:27:58.981Z,39.15
2023-03-24T21:30:27.582Z,32.42
2023-03-24T21:32:57.164Z,25.67
2023-03-24T21:35:25.051Z,26.30
2023-03-24T21:37:53.957Z,40.78
2023-03-24T21:40:23.974Z,28.95
2023-03-24T21:42:53.317Z,24.65
2023-03-24T21:45:23.799Z,30.92
2023-03-24T21:47:51.633Z,24.10
2023-03-24T21:50:23.716Z,31.80
2023-03-24T21:52:53.365Z,23.27
2023-03-24T21:55:22.160Z,16.75
2023-03-24T21:57:52.101Z,25.40
2023-03-24T22:00:22.901Z,26.42
2023-03-24T22:02:52.519Z,19.38
2023-03-24T22:05:22.490Z,30.58
2023-03-24T22:07:50.976Z,21.60
2023-03-24T22:10:24.544Z,21.10
2023-03-24T22:12:53.299Z,18.02
2023-03-24T22:15:21.512Z,21.55
2023-03-24T22:17:49.439Z,23.80
2023-03-24T22:20:17.143Z,21.45
2023-03-24T22:22:45.350Z,22.83
2023-03-24T22:25:15.206Z,19.67
2023-03-24T22:27:44.557Z,18.48
2023-03-24T22:30:13.530Z,31.15
2023-03-24T22:32:41.541Z,25.23
2023-03-24T22:35:09.242Z,30.40
2023-03-24T22:37:36.671Z,19.35
2023-03-24T22:40:05.760Z,25.48
2023-03-24T22:42:33.083Z,25.17
2023-03-24T22:45:00.747Z,26.85
2023-03-24T22:47:29.088Z,19.25
2023-03-24T22:49:56.468Z,21.50
2023-03-24T22:52:23.898Z,25.88
2023-03-24T22:54:51.152Z,19.48
2023-03-24T22:57:18.859Z,27.70
2023-03-24T22:59:46.173Z,31.15
2023-03-24T23:02:13.550Z,24.23
2023-03-24T23:04:42.114Z,20.65
2023-03-24T23:07:10.253Z,29.27
2023-03-24T23:09:37.706Z,18.40
2023-03-24T23:12:05.180Z,20.55
2023-03-24T23:14:32.620Z,19.52
2023-03-24T23:17:00.206Z,25.60
2023-03-24T23:19:28.207Z,19.73
2023-03-24T23:21:55.544Z,21.00
2023-03-24T23:24:22.913Z,16.65
2023-03-24T23:26:50.358Z,19.10
2023-03-24T23:29:17.930Z,17.15
2023-03-24T23:31:45.426Z,17.63
2023-03-24T23:34:14.114Z,24.13
2023-03-24T23:36:44.850Z,24.30
2023-03-24T23:39:12.324Z,17.85
2023-03-24T23:41:39.707Z,13.10
2023-03-24T23:44:07.056Z,21.27
2023-03-24T23:46:34.475Z,15.25
2023-03-24T23:49:01.969Z,27.48
2023-03-24T23:51:29.758Z,22.75
2023-03-24T23:53:57.217Z,16.65
2023-03-24T23:56:24.503Z,21.27
2023-03-24T23:58:52.256Z,21.67
